createdAt,value
2022-07-29T00:00:21.671Z,1.70
2022-07-29T00:02:38.533Z,2.00
2022-07-29T00:04:41.044Z,2.15
2022-07-29T00:06:43.121Z,2.15
2022-07-29T00:10:47.380Z,1.90
2022-07-29T00:12:49.398Z,1.75
2022-07-29T00:14:52.772Z,2.15
2022-07-29T00:16:55.127Z,2.15
2022-07-29T00:18:59.532Z,2.00
2022-07-29T00:21:04.159Z,2.05
2022-07-29T00:23:06.684Z,2.15
2022-07-29T00:25:09.305Z,1.98
2022-07-29T00:27:11.286Z,1.80
2022-07-29T00:31:35.743Z,2.22
2022-07-29T00:33:38.159Z,1.98
2022-07-29T00:35:40.363Z,2.28
2022-07-29T00:37:42.514Z,2.42
2022-07-29T00:43:54.111Z,2.25
2022-07-29T00:47:58.582Z,2.20
2022-07-29T00:52:06.758Z,2.10
2022-07-29T00:54:09.330Z,2.13
2022-07-29T00:58:14.084Z,2.13
2022-07-29T01:00:21.071Z,2.25
2022-07-29T01:02:23.316Z,2.28
2022-07-29T01:04:25.708Z,2.20
2022-07-29T01:06:28.089Z,2.22
2022-07-29T01:08:30.496Z,2.45
2022-07-29T01:10:33.450Z,2.63
2022-07-29T01:12:38.169Z,2.35
2022-07-29T01:14:41.491Z,2.08
2022-07-29T01:16:52.725Z,2.20
2022-07-29T01:19:03.245Z,2.33
2022-07-29T01:21:19.173Z,2.22
2022-07-29T01:23:47.618Z,2.17
2022-07-29T01:26:15.495Z,2.20
2022-07-29T01:28:59.860Z,2.13
2022-07-29T01:31:04.324Z,1.90
2022-07-29T01:33:14.180Z,2.03
2022-07-29T01:35:25.632Z,1.98
2022-07-29T01:37:38.790Z,2.13
2022-07-29T01:39:42.697Z,2.10
2022-07-29T01:42:10.250Z,2.30
2022-07-29T01:44:32.753Z,2.28
2022-07-29T01:46:37.825Z,2.25
2022-07-29T01:48:51.636Z,2.15
2022-07-29T01:51:03.800Z,2.00
2022-07-29T01:53:10.718Z,2.25
2022-07-29T01:55:17.914Z,2.00
2022-07-29T01:57:27.803Z,2.45
2022-07-29T01:59:31.982Z,2.10
2022-07-29T02:01:34.990Z,2.00
2022-07-29T02:03:40.401Z,2.22
2022-07-29T02:05:46.554Z,2.20
2022-07-29T02:07:50.654Z,2.63
2022-07-29T02:09:55.371Z,2.33
2022-07-29T02:11:58.860Z,2.15
2022-07-29T02:14:02.684Z,2.35
2022-07-29T02:16:08.437Z,2.65
2022-07-29T02:18:24.025Z,2.17
2022-07-29T02:20:27.398Z,2.30
2022-07-29T02:22:32.562Z,2.60
2022-07-29T02:24:38.338Z,2.40
2022-07-29T02:26:44.186Z,2.40
2022-07-29T02:28:48.340Z,2.75
2022-07-29T02:30:53.772Z,2.55
2022-07-29T02:32:56.943Z,2.70
2022-07-29T02:35:00.964Z,2.30
2022-07-29T02:37:04.685Z,2.55
2022-07-29T02:39:09.018Z,3.20
2022-07-29T02:41:21.601Z,2.55
2022-07-29T02:43:24.718Z,2.50
2022-07-29T02:45:27.265Z,2.45
2022-07-29T02:47:42.178Z,2.30
2022-07-29T02:49:56.561Z,2.78
2022-07-29T02:52:06.781Z,2.50
2022-07-29T02:54:12.036Z,2.50
2022-07-29T02:56:35.560Z,2.22
2022-07-29T02:58:57.073Z,2.47
2022-07-29T03:01:05.036Z,2.53
2022-07-29T03:03:16.303Z,2.70
2022-07-29T03:05:20.940Z,2.60
2022-07-29T03:07:24.490Z,2.50
2022-07-29T03:09:28.566Z,2.28
2022-07-29T03:11:44.300Z,2.47
2022-07-29T03:13:52.292Z,2.20
2022-07-29T03:15:54.976Z,2.30
2022-07-29T03:17:58.030Z,2.25
2022-07-29T03:20:00.894Z,2.20
2022-07-29T03:22:03.274Z,2.40
2022-07-29T03:24:10.250Z,2.20
2022-07-29T03:26:14.710Z,2.13
2022-07-29T03:28:16.918Z,2.30
2022-07-29T03:30:22.245Z,2.10
2022-07-29T03:32:25.318Z,2.30
2022-07-29T03:34:27.438Z,2.10
2022-07-29T03:38:36.863Z,2.53
2022-07-29T03:40:46.897Z,2.00
2022-07-29T03:42:51.988Z,2.05
2022-07-29T03:44:57.104Z,2.45
2022-07-29T03:47:01.191Z,2.20
2022-07-29T03:49:06.086Z,2.10
2022-07-29T03:51:08.652Z,2.40
2022-07-29T03:53:11.777Z,2.50
2022-07-29T03:55:15.661Z,2.30
2022-07-29T03:57:21.946Z,2.17
2022-07-29T03:59:25.493Z,2.30
2022-07-29T04:01:29.577Z,2.30
2022-07-29T04:03:32.059Z,2.28
2022-07-29T04:05:34.189Z,2.25
2022-07-29T04:07:36.222Z,2.40
2022-07-29T04:09:38.667Z,2.40
2022-07-29T04:12:01.979Z,2.50
2022-07-29T04:14:15.097Z,2.47
2022-07-29T04:16:20.179Z,2.30
2022-07-29T04:18:22.583Z,2.28
2022-07-29T04:20:24.789Z,2.50
2022-07-29T04:22:27.272Z,2.50
2022-07-29T04:24:29.486Z,2.30
2022-07-29T04:26:31.584Z,2.30
2022-07-29T04:28:33.998Z,2.28
2022-07-29T04:30:38.070Z,2.30
2022-07-29T04:35:02.275Z,2.53
2022-07-29T04:37:05.584Z,2.85
2022-07-29T04:39:07.921Z,2.20
2022-07-29T04:41:11.449Z,2.10
2022-07-29T04:43:14.228Z,2.17
2022-07-29T04:45:22.230Z,2.60
2022-07-29T04:47:38.821Z,2.47
2022-07-29T04:49:44.419Z,2.30
2022-07-29T04:51:51.603Z,1.98
2022-07-29T04:53:54.649Z,2.33
2022-07-29T04:56:08.618Z,2.33
2022-07-29T04:58:42.011Z,2.60
2022-07-29T05:01:23.445Z,2.60
2022-07-29T05:06:15.815Z,2.13
2022-07-29T05:09:12.955Z,2.50
2022-07-29T05:11:30.600Z,2.38
2022-07-29T05:13:54.497Z,2.17
2022-07-29T05:16:03.396Z,2.00
2022-07-29T05:18:06.342Z,2.10
2022-07-29T05:20:11.864Z,2.28
2022-07-29T05:22:14.073Z,2.22
2022-07-29T05:24:17.101Z,2.00
2022-07-29T05:26:19.934Z,1.98
2022-07-29T05:28:22.305Z,2.10
2022-07-29T05:30:24.931Z,1.88
2022-07-29T05:32:27.667Z,1.95
2022-07-29T05:34:29.898Z,2.03
2022-07-29T05:36:33.226Z,2.00
2022-07-29T05:38:37.292Z,2.20
2022-07-29T05:40:39.592Z,2.30
2022-07-29T05:42:41.675Z,1.75
2022-07-29T05:44:44.403Z,2.22
2022-07-29T05:47:12.587Z,2.00
2022-07-29T05:52:32.858Z,1.70
2022-07-29T05:54:59.180Z,1.73
2022-07-29T05:57:43.775Z,1.80
2022-07-29T06:00:09.607Z,1.80
2022-07-29T06:02:21.269Z,1.90
2022-07-29T06:04:25.036Z,1.88
2022-07-29T06:06:29.773Z,1.90
2022-07-29T06:08:32.270Z,1.85
2022-07-29T06:10:40.280Z,2.00
2022-07-29T06:12:57.721Z,2.75
2022-07-29T06:15:03.854Z,3.17
2022-07-29T06:17:14.821Z,2.70
2022-07-29T06:19:18.781Z,2.00
2022-07-29T06:21:33.421Z,2.00
2022-07-29T06:23:46.012Z,2.30
2022-07-29T06:25:50.797Z,2.30
2022-07-29T06:28:01.441Z,2.10
2022-07-29T06:39:53.000Z,1.90
2022-07-29T06:42:15.704Z,2.60
2022-07-29T06:44:25.153Z,1.52
2022-07-29T06:46:27.787Z,1.90
2022-07-29T06:51:22.273Z,3.20
2022-07-29T06:53:26.010Z,2.58
2022-07-29T06:55:30.793Z,1.60
2022-07-29T06:57:37.461Z,2.20
2022-07-29T06:59:42.666Z,2.08
2022-07-29T07:01:47.350Z,2.75
2022-07-29T07:03:56.751Z,2.28
2022-07-29T07:06:04.419Z,1.90
2022-07-29T07:08:40.314Z,1.70
2022-07-29T07:11:25.988Z,1.80
2022-07-29T07:13:39.669Z,1.48
2022-07-29T07:15:42.825Z,1.77
2022-07-29T07:17:45.780Z,1.90
2022-07-29T07:20:56.006Z,1.63
2022-07-29T07:26:59.551Z,1.33
2022-07-29T07:29:22.114Z,1.90
2022-07-29T07:31:36.243Z,1.70
2022-07-29T07:33:38.830Z,1.52
2022-07-29T07:35:46.977Z,1.70
2022-07-29T07:37:52.330Z,1.70
2022-07-29T07:40:07.126Z,1.80
2022-07-29T07:42:09.721Z,1.90
2022-07-29T07:44:21.246Z,1.80
2022-07-29T07:46:36.592Z,1.70
2022-07-29T07:48:46.405Z,1.75
2022-07-29T07:50:52.671Z,1.80
2022-07-29T07:52:57.214Z,1.70
2022-07-29T07:55:02.798Z,1.73
2022-07-29T07:57:20.817Z,1.65
2022-07-29T07:59:33.673Z,1.60
2022-07-29T08:01:47.912Z,1.50
2022-07-29T08:03:57.670Z,1.77
2022-07-29T08:06:00.290Z,1.75
2022-07-29T08:08:05.725Z,1.70
2022-07-29T08:10:11.127Z,2.00
2022-07-29T08:12:18.319Z,1.40
2022-07-29T08:14:23.366Z,1.83
2022-07-29T08:16:28.288Z,1.75
2022-07-29T08:18:44.765Z,1.90
2022-07-29T08:20:52.009Z,1.60
2022-07-29T08:22:54.339Z,1.60
2022-07-29T08:24:56.861Z,2.05
2022-07-29T08:31:07.479Z,1.63
2022-07-29T08:34:13.508Z,1.60
2022-07-29T08:36:23.542Z,1.35
2022-07-29T08:38:29.666Z,1.40
2022-07-29T08:40:32.828Z,1.60
2022-07-29T08:42:43.252Z,1.60
2022-07-29T08:44:55.840Z,1.65
2022-07-29T08:56:03.630Z,1.60
2022-07-29T08:58:38.276Z,1.70
2022-07-29T09:01:12.694Z,1.52
2022-07-29T09:06:49.130Z,1.50
2022-07-29T09:08:59.577Z,1.63
2022-07-29T09:11:05.592Z,1.70
2022-07-29T09:13:08.480Z,1.63
2022-07-29T09:15:21.785Z,1.60
2022-07-29T09:17:54.640Z,1.60
2022-07-29T09:20:26.707Z,1.70
2022-07-29T09:23:01.779Z,1.73
2022-07-29T09:25:37.361Z,1.73
2022-07-29T09:27:40.620Z,1.80
2022-07-29T09:29:47.480Z,1.60
2022-07-29T09:32:11.041Z,1.73
2022-07-29T09:34:32.636Z,1.60
2022-07-29T09:36:51.118Z,1.90
2022-07-29T09:39:02.843Z,1.92
2022-07-29T09:41:25.774Z,1.75
2022-07-29T09:43:30.021Z,1.70
2022-07-29T09:55:18.278Z,1.63
2022-07-29T09:57:31.737Z,2.00
2022-07-29T10:18:15.071Z,1.83
2022-07-29T10:21:36.214Z,1.70
2022-07-29T10:23:46.530Z,1.73
2022-07-29T10:25:51.046Z,1.77
2022-07-29T10:27:55.205Z,1.70
2022-07-29T10:29:58.206Z,1.67
2022-07-29T10:32:55.285Z,1.88
2022-07-29T10:35:29.244Z,1.92
2022-07-29T10:38:16.172Z,1.60
2022-07-29T10:40:33.925Z,1.50
2022-07-29T10:42:42.513Z,2.03
2022-07-29T10:44:45.484Z,1.90
2022-07-29T10:49:24.999Z,1.90
2022-07-29T10:52:03.493Z,2.20
2022-07-29T10:54:39.677Z,2.10
2022-07-29T10:57:15.653Z,1.58
2022-07-29T10:59:21.551Z,1.90
2022-07-29T11:01:36.996Z,1.90
2022-07-29T11:03:57.074Z,2.10
2022-07-29T11:06:14.395Z,1.92
2022-07-29T11:08:26.398Z,2.30
2022-07-29T11:10:33.075Z,2.00
2022-07-29T11:12:48.894Z,2.17
2022-07-29T11:15:02.101Z,2.00
2022-07-29T11:17:47.198Z,1.90
2022-07-29T11:26:23.429Z,1.70
2022-07-29T11:31:21.364Z,1.80
2022-07-29T11:33:56.517Z,1.70
2022-07-29T11:54:04.364Z,1.90
2022-07-29T11:58:21.072Z,1.90
2022-07-29T12:01:41.576Z,1.80
2022-07-29T12:03:49.947Z,2.00
2022-07-29T12:05:53.752Z,1.85
2022-07-29T12:08:16.805Z,1.98
2022-07-29T12:10:30.073Z,1.90
2022-07-29T12:19:24.553Z,2.22
2022-07-29T12:22:40.203Z,2.45
2022-07-29T12:25:32.621Z,1.98
2022-07-29T12:27:36.404Z,2.10
2022-07-29T12:30:10.915Z,1.75
2022-07-29T12:32:14.429Z,2.05
2022-07-29T12:34:33.023Z,2.20
2022-07-29T12:36:35.380Z,1.95
2022-07-29T12:38:38.433Z,1.98
2022-07-29T12:40:41.575Z,2.03
2022-07-29T12:43:12.092Z,2.10
2022-07-29T12:45:14.397Z,2.13
2022-07-29T12:47:38.447Z,2.10
2022-07-29T12:52:50.925Z,1.85
2022-07-29T12:54:53.222Z,2.20
2022-07-29T13:10:46.933Z,2.17
2022-07-29T13:25:34.564Z,2.17
2022-07-29T13:27:46.805Z,2.25
2022-07-29T13:30:18.316Z,2.30
2022-07-29T13:32:49.365Z,2.22
2022-07-29T13:34:54.278Z,2.42
2022-07-29T13:37:00.172Z,2.35
2022-07-29T13:39:05.135Z,2.42
2022-07-29T13:41:07.484Z,2.10
2022-07-29T13:43:13.044Z,2.50
2022-07-29T13:45:28.997Z,2.20
2022-07-29T13:50:40.904Z,2.35
2022-07-29T13:52:47.117Z,2.38
2022-07-29T13:54:53.963Z,2.20
2022-07-29T14:03:00.822Z,1.98
2022-07-29T14:05:10.433Z,2.30
2022-07-29T14:07:40.174Z,2.33
2022-07-29T14:10:33.584Z,2.17
2022-07-29T14:12:36.394Z,2.15
2022-07-29T14:14:38.857Z,2.33
2022-07-29T14:16:47.567Z,2.10
2022-07-29T14:18:54.154Z,2.28
2022-07-29T14:20:59.923Z,2.08
2022-07-29T14:23:02.094Z,2.28
2022-07-29T14:25:14.236Z,2.35
2022-07-29T14:27:18.063Z,2.20
2022-07-29T14:29:20.424Z,2.10
2022-07-29T14:31:29.150Z,2.20
2022-07-29T14:33:49.294Z,2.40
2022-07-29T14:36:01.474Z,2.15
2022-07-29T14:42:01.922Z,2.25
2022-07-29T14:46:51.214Z,2.40
2022-07-29T14:49:09.503Z,2.40
2022-07-29T14:51:18.514Z,2.40
2022-07-29T14:53:37.074Z,2.42
2022-07-29T14:56:34.214Z,2.38
2022-07-29T15:02:40.016Z,2.53
2022-07-29T15:05:55.985Z,2.50
2022-07-29T15:09:07.467Z,2.38
2022-07-29T15:11:10.009Z,2.20
2022-07-29T15:13:53.052Z,2.60
2022-07-29T15:15:59.786Z,2.30
2022-07-29T15:18:02.939Z,2.10
2022-07-29T15:20:06.805Z,2.30
2022-07-29T15:22:14.884Z,2.50
2022-07-29T15:27:19.695Z,2.22
2022-07-29T15:29:46.754Z,2.33
2022-07-29T15:32:23.674Z,2.30
2022-07-29T15:51:05.003Z,2.45
2022-07-29T15:53:14.132Z,2.40
2022-07-29T15:55:24.864Z,2.30
2022-07-29T15:58:00.840Z,2.53
2022-07-29T16:00:05.484Z,2.25
2022-07-29T16:02:16.285Z,2.30
2022-07-29T16:04:19.127Z,2.42
2022-07-29T16:06:39.673Z,2.42
2022-07-29T16:11:20.915Z,2.30
2022-07-29T16:13:23.753Z,2.20
2022-07-29T16:15:29.724Z,2.53
2022-07-29T16:17:39.270Z,2.85
2022-07-29T16:20:23.663Z,2.63
2022-07-29T16:22:28.293Z,2.40
2022-07-29T16:24:35.843Z,2.50
2022-07-29T16:27:35.583Z,2.65
2022-07-29T16:29:47.193Z,2.40
2022-07-29T16:31:49.761Z,2.35
2022-07-29T16:34:08.821Z,2.50
2022-07-29T16:58:40.515Z,2.65
2022-07-29T17:02:17.512Z,2.30
2022-07-29T17:04:21.645Z,2.40
2022-07-29T17:07:02.346Z,2.38
2022-07-29T17:10:08.301Z,2.50
2022-07-29T17:16:00.172Z,2.65
2022-07-29T17:22:21.419Z,2.53
2022-07-29T17:25:12.591Z,2.63
2022-07-29T17:31:29.869Z,2.45
2022-07-29T17:37:57.874Z,2.65
2022-07-29T17:37:59.271Z,2.45
2022-07-29T17:40:47.296Z,2.90
2022-07-29T17:43:29.387Z,3.10
2022-07-29T17:50:24.404Z,2.50
2022-07-29T17:52:41.456Z,2.50
2022-07-29T17:55:01.292Z,3.00
2022-07-29T17:59:54.796Z,2.90
2022-07-29T18:02:13.654Z,2.33
2022-07-29T18:04:39.646Z,2.50
2022-07-29T18:07:02.109Z,2.88
2022-07-29T18:10:02.406Z,3.60
2022-07-29T18:15:34.719Z,3.33
2022-07-29T18:23:40.149Z,2.80
2022-07-29T18:29:14.652Z,3.17
2022-07-29T18:35:25.706Z,4.47
2022-07-29T18:49:59.228Z,3.15
2022-07-29T18:56:04.245Z,2.80
2022-07-29T18:59:03.638Z,3.08
2022-07-29T19:01:16.427Z,3.70
2022-07-29T19:03:22.314Z,3.15
2022-07-29T19:05:28.757Z,2.80
2022-07-29T19:07:34.545Z,2.97
2022-07-29T19:09:37.554Z,2.70
2022-07-29T19:11:57.996Z,2.80
2022-07-29T19:14:07.673Z,2.47
2022-07-29T19:16:16.047Z,2.40
2022-07-29T19:18:22.326Z,3.35
2022-07-29T19:20:26.032Z,2.88
2022-07-29T19:22:33.266Z,2.88
2022-07-29T19:24:44.386Z,3.00
2022-07-29T19:26:56.152Z,3.10
2022-07-29T19:29:03.911Z,3.13
2022-07-29T19:31:11.220Z,3.00
2022-07-29T19:33:13.786Z,2.97
2022-07-29T19:35:16.722Z,3.00
2022-07-29T19:37:22.115Z,3.75
2022-07-29T19:39:34.886Z,3.50
2022-07-29T19:41:38.837Z,3.60
2022-07-29T19:43:50.825Z,3.67
2022-07-29T19:46:07.590Z,3.97
2022-07-29T19:48:10.397Z,4.20
2022-07-29T19:50:33.214Z,4.28
2022-07-29T19:52:36.046Z,4.05
2022-07-29T19:54:38.314Z,4.35
2022-07-29T19:56:42.085Z,3.53
2022-07-29T19:58:45.123Z,3.13
2022-07-29T20:00:48.006Z,3.58
2022-07-29T20:02:51.217Z,3.50
2022-07-29T20:04:53.804Z,3.30
2022-07-29T20:06:56.596Z,3.20
2022-07-29T20:09:20.423Z,2.97
2022-07-29T20:11:30.938Z,3.30
2022-07-29T20:13:41.051Z,3.42
2022-07-29T20:16:04.472Z,3.25
2022-07-29T20:18:26.468Z,3.50
2022-07-29T20:20:30.322Z,3.08
2022-07-29T20:23:01.409Z,2.90
2022-07-29T20:25:12.300Z,3.55
2022-07-29T20:27:26.147Z,3.60
2022-07-29T20:29:44.439Z,3.58
2022-07-29T20:31:56.468Z,3.67
2022-07-29T20:34:30.153Z,3.67
2022-07-29T20:36:48.322Z,3.53
2022-07-29T20:39:16.894Z,3.55
2022-07-29T20:45:34.345Z,3.50
2022-07-29T20:48:19.464Z,3.58
2022-07-29T20:50:37.083Z,3.33
2022-07-29T20:53:01.341Z,3.20
2022-07-29T20:55:13.282Z,3.22
2022-07-29T20:57:39.253Z,2.90
2022-07-29T21:00:12.089Z,3.47
2022-07-29T21:02:31.070Z,2.90
2022-07-29T21:05:09.322Z,2.85
2022-07-29T21:10:29.717Z,2.95
2022-07-29T21:13:03.281Z,3.17
2022-07-29T21:15:19.040Z,2.78
2022-07-29T21:17:44.954Z,2.78
2022-07-29T21:19:47.452Z,2.65
2022-07-29T21:22:00.480Z,2.60
2022-07-29T21:24:16.697Z,2.70
2022-07-29T21:26:34.657Z,2.70
2022-07-29T21:28:37.602Z,2.50
2022-07-29T21:30:43.781Z,2.50
2022-07-29T21:32:46.406Z,2.40
2022-07-29T21:34:48.802Z,2.08
2022-07-29T21:36:52.077Z,2.30
2022-07-29T21:38:55.525Z,2.42
2022-07-29T21:40:58.875Z,2.30
2022-07-29T21:43:00.965Z,2.45
2022-07-29T21:45:03.408Z,2.20
2022-07-29T21:47:08.983Z,2.50
2022-07-29T21:49:11.220Z,2.10
2022-07-29T21:51:13.369Z,2.42
2022-07-29T21:53:16.204Z,2.10
2022-07-29T21:55:19.393Z,2.10
2022-07-29T21:57:23.183Z,2.20
2022-07-29T21:59:25.995Z,2.10
2022-07-29T22:01:28.096Z,2.80
2022-07-29T22:03:41.045Z,2.10
2022-07-29T22:05:44.751Z,1.80
2022-07-29T22:07:54.397Z,1.90
2022-07-29T22:09:59.695Z,1.80
2022-07-29T22:12:02.464Z,1.83
2022-07-29T22:14:07.866Z,1.83
2022-07-29T22:16:11.355Z,1.80
2022-07-29T22:18:14.147Z,1.70
2022-07-29T22:20:23.727Z,2.13
2022-07-29T22:22:25.874Z,2.00
2022-07-29T22:24:28.212Z,1.90
2022-07-29T22:26:30.235Z,1.95
2022-07-29T22:28:32.403Z,1.88
2022-07-29T22:30:34.917Z,2.10
2022-07-29T22:32:37.219Z,2.20
2022-07-29T22:34:39.327Z,2.17
2022-07-29T22:36:41.736Z,1.95
2022-07-29T22:38:43.890Z,2.17
2022-07-29T22:40:46.618Z,2.28
2022-07-29T22:42:49.043Z,2.00
2022-07-29T22:44:51.345Z,1.80
2022-07-29T22:46:53.562Z,2.08
2022-07-29T22:48:57.263Z,1.92
2022-07-29T22:51:00.067Z,1.88
2022-07-29T22:53:02.472Z,1.85
2022-07-29T22:55:06.135Z,1.80
2022-07-29T22:57:08.091Z,1.80
2022-07-29T22:59:10.333Z,1.80
2022-07-29T23:01:12.953Z,1.70
2022-07-29T23:03:15.158Z,1.80
2022-07-29T23:05:17.246Z,2.08
2022-07-29T23:07:19.652Z,1.90
2022-07-29T23:09:21.803Z,1.85
2022-07-29T23:11:24.194Z,1.88
2022-07-29T23:13:26.500Z,1.58
2022-07-29T23:15:28.573Z,1.80
2022-07-29T23:17:30.659Z,2.03
2022-07-29T23:19:38.394Z,1.80
2022-07-29T23:21:40.694Z,1.63
2022-07-29T23:23:42.791Z,1.70
2022-07-29T23:25:45.163Z,1.70
2022-07-29T23:27:47.569Z,1.70
2022-07-29T23:29:49.682Z,1.83
2022-07-29T23:31:51.997Z,1.75
2022-07-29T23:33:54.262Z,1.70
2022-07-29T23:35:56.301Z,2.03
2022-07-29T23:37:58.858Z,2.15
2022-07-29T23:40:01.056Z,1.75
2022-07-29T23:42:03.578Z,1.80
2022-07-29T23:44:06.138Z,1.80
2022-07-29T23:46:08.189Z,1.90
2022-07-29T23:48:10.483Z,1.70
2022-07-29T23:50:13.255Z,1.83
2022-07-29T23:52:16.709Z,1.80
2022-07-29T23:54:18.941Z,2.00
2022-07-29T23:56:21.770Z,1.80
2022-07-29T23:58:24.062Z,1.60
